Latest Weather Observations for Tennant Creek

IDD60801

Issued at 10:35 am CST Monday 24 November 2014 (issued every 30 minutes, with the page automatically refreshed every 10 minutes)

About weather observations | Map of weather stations | Latest weather observations for NT | Other Formats
Station Details ID: 015135 Name: TENNANT CREEK AIRPORT Lat: -19.64 Lon: 134.18 Height: 375.7 m
Data from the previous 72 hours. | See also: Recent months at Tennant Creek
Date/Time
CST
Temp
°C
App
Temp
°C
Dew
Point
Rel
Hum
%
Delta-T
°C
Wind Press
QNH
hPa
Press
MSL
hPa
Rain
since 9 am
mm
Dir
 
Spd
km/h
Gust
km/h
Spd
kts
Gust
kts
24/10:30am 34.5 32.8 16.3 33 11.7 SSE 20 33 11 18 1013.1 - 0.0
24/10:00am 33.5 31.1 16.5 36 10.9 S 24 35 13 19 1013.1 - 0.0
24/09:30am 32.4 31.0 17.0 39 9.9 S 20 30 11 16 1013.2 - 0.0
24/09:00am 31.3 29.1 17.0 42 9.2 SSW 24 39 13 21 1013.4 1010.6 0.0
24/08:30am 30.3 29.2 17.8 47 8.1 SSW 20 30 11 16 1013.2 - 0.0
24/08:00am 29.7 28.1 17.4 47 7.9 SSW 22 33 12 18 1013.1 - 0.0
24/07:30am 30.5 27.8 16.7 43 8.8 S 26 41 14 22 1012.8 - 0.0
24/07:20am 31.2 28.0 16.2 40 9.5 SSW 28 39 15 21 1012.7 - 0.0
24/07:00am 30.7 30.7 16.2 41 9.2 SW 11 17 6 9 1012.3 - 0.0
24/06:30am 30.3 31.2 16.7 44 8.7 NW 7 11 4 6 1010.8 - 0.0
24/06:00am 30.2 30.6 16.3 43 8.8 NNW 9 13 5 7 1010.3 1007.4 0.0
24/05:30am 30.4 30.7 16.0 41 9.1 N 9 11 5 6 1010.0 - 0.0
24/05:00am 30.8 30.7 15.9 40 9.4 N 11 20 6 11 1009.8 - 0.0
24/04:30am 29.4 29.9 15.5 43 8.7 NW 7 15 4 8 1009.7 - 0.0
24/04:00am 29.3 30.3 16.3 45 8.2 WNW 6 7 3 4 1009.2 - 0.0
24/03:30am 29.6 30.3 16.1 44 8.5 WNW 7 9 4 5 1009.0 - 0.0
24/03:00am 30.3 30.5 15.7 41 9.2 WNW 9 11 5 6 1009.0 1006.2 0.0
24/02:30am 30.3 30.5 15.7 41 9.2 W 9 11 5 6 1009.1 - 0.0
24/02:00am 31.1 31.3 15.7 39 9.7 WNW 9 11 5 6 1009.0 - 0.0
24/01:30am 30.9 31.5 15.9 40 9.5 NW 7 9 4 5 1009.4 - 0.0
24/01:00am 31.3 31.4 15.4 38 10.0 NW 9 11 5 6 1009.8 - 0.0
24/12:30am 32.2 31.6 14.7 34 10.9 NNW 11 15 6 8 1010.2 - 0.0
24/12:00am 32.9 31.7 14.0 32 11.7 N 13 20 7 11 1010.4 1007.5 0.0
 
Date/Time
CST
Temp
°C
App
Temp
°C
Dew
Point
Rel
Hum
%
Delta-T
°C
Wind Press
QNH
hPa
Press
MSL
hPa
Rain
since 9 am
mm
Dir
 
Spd
km/h
Gust
km/h
Spd
kts
Gust
kts
23/11:30pm 33.2 32.0 14.0 31 11.9 N 13 15 7 8 1010.6 - 0.0
23/11:00pm 34.3 31.8 13.4 28 12.9 N 19 28 10 15 1010.6 - 0.0
23/10:30pm 33.9 32.5 13.4 29 12.6 N 13 17 7 9 1010.6 - 0.0
23/10:00pm 35.0 33.5 13.0 26 13.5 N 13 17 7 9 1010.4 - 0.0
23/09:30pm 34.9 33.0 13.1 27 13.4 N 15 20 8 11 1010.2 - 0.0
23/09:00pm 35.5 34.3 12.9 25 13.9 NNE 11 20 6 11 1010.1 1007.2 0.0
23/08:30pm 35.4 35.3 13.9 27 13.4 NW 7 9 4 5 1009.8 - 0.0
23/08:00pm 35.6 35.7 14.5 28 13.3 NW 7 9 4 5 1009.5 - 0.0
23/07:30pm 36.1 35.4 13.1 25 14.2 NW 9 11 5 6 1009.0 - 0.0
23/07:00pm 37.2 36.9 12.7 23 15.1 WNW 6 9 3 5 1008.7 - 0.0
23/06:30pm 37.7 37.3 13.1 23 15.3 W 7 11 4 6 1008.5 - 0.0
23/06:00pm 38.1 37.4 12.0 21 16.0 WNW 7 13 4 7 1008.2 1005.3 0.0
23/05:30pm 38.2 38.4 12.9 22 15.7 WNW 4 9 2 5 1008.0 - 0.0
23/05:00pm 38.6 36.7 11.8 20 16.4 W 13 24 7 13 1008.0 - 0.0
23/04:30pm 39.0 38.1 11.2 19 16.9 N 7 11 4 6 1008.0 - 0.0
23/04:00pm 38.2 37.9 12.7 21 15.8 ENE 6 11 3 6 1008.2 - 0.0
23/03:30pm 39.1 37.9 11.7 19 16.8 NNW 9 24 5 13 1008.7 - 0.0
23/03:00pm 40.3 38.0 10.6 17 18.0 NNE 13 28 7 15 1008.8 1006.0 0.0
23/02:30pm 38.5 37.0 11.9 20 16.3 N 11 20 6 11 1009.5 - 0.0
23/02:00pm 39.7 36.0 9.4 16 18.0 NNW 19 28 10 15 1009.9 - 0.0
23/01:30pm 38.5 36.5 11.4 19 16.5 W 13 22 7 12 1010.5 - 0.0
23/01:00pm 37.9 36.6 12.4 21 15.7 NW 11 24 6 13 1010.9 - 0.0
23/12:30pm 38.6 35.2 10.4 18 16.9 NNW 19 30 10 16 1011.3 - 0.0
23/12:00pm 37.3 35.7 11.6 21 15.6 NNE 11 20 6 11 1012.0 1009.2 0.0
23/11:30am 36.8 35.0 11.0 21 15.5 N 11 20 6 11 1012.6 - 0.0
23/11:00am 35.7 34.4 11.4 23 14.6 NNE 9 20 5 11 1012.9 - 0.0
23/10:30am 34.6 34.3 13.3 27 13.1 WNW 7 13 4 7 1013.4 - 0.0
23/10:00am 34.6 34.5 13.8 28 12.9 NW 7 13 4 7 1013.8 - 0.0
23/09:30am 33.9 32.7 13.9 30 12.4 W 13 20 7 11 1013.9 - 0.0
23/09:00am 33.4 33.0 14.0 31 12.0 W 9 15 5 8 1013.9 1011.1 0.0
23/08:30am 32.0 31.3 14.2 34 11.0 WSW 11 17 6 9 1014.0 - 0.0
23/08:00am 30.8 29.4 14.4 36 10.1 SW 15 22 8 12 1013.9 - 0.0
23/07:30am 29.3 28.6 15.3 42 8.7 SSW 13 20 7 11 1013.8 - 0.0
23/07:00am 28.1 28.6 15.6 46 7.8 S 7 13 4 7 1013.5 - 0.0
23/06:30am 27.8 28.2 16.4 50 7.2 S 9 13 5 7 1013.2 - 0.0
23/06:00am 27.7 28.4 17.0 52 6.8 SW 9 11 5 6 1012.8 1009.9 0.0
23/05:30am 28.0 28.4 17.2 52 6.9 NNW 11 17 6 9 1012.0 - 0.0
23/05:00am 28.1 27.1 16.7 50 7.2 N 17 24 9 13 1011.5 - 0.0
23/04:30am 27.8 26.9 15.8 48 7.5 N 15 22 8 12 1011.5 - 0.0
23/04:00am 27.9 27.2 15.3 46 7.8 N 13 22 7 12 1011.8 - 0.0
23/03:30am 28.0 26.6 14.6 44 8.2 N 15 24 8 13 1011.7 - 0.0
23/03:00am 28.5 27.1 14.5 42 8.6 NNE 15 22 8 12 1011.8 1009.0 0.0
23/02:30am 29.1 27.2 12.9 37 9.7 NNE 15 22 8 12 1012.3 - 0.0
23/02:00am 28.6 27.7 12.7 37 9.5 E 9 11 5 6 1011.7 - 0.0
23/01:30am 29.0 29.5 14.1 40 9.1 E 4 6 2 3 1011.7 - 0.0
23/01:00am 29.9 29.4 12.5 34 10.4 ESE 7 7 4 4 1011.8 - 0.0
23/12:30am 29.9 29.2 12.0 33 10.6 ESE 7 9 4 5 1012.2 - 0.0
23/12:00am 30.3 29.8 11.9 32 10.9 ESE 6 7 3 4 1012.4 1009.5 0.0
 
Date/Time
CST
Temp
°C
App
Temp
°C
Dew
Point
Rel
Hum
%
Delta-T
°C
Wind Press
QNH
hPa
Press
MSL
hPa
Rain
since 9 am
mm
Dir
 
Spd
km/h
Gust
km/h
Spd
kts
Gust
kts
22/11:30pm 28.5 29.1 13.0 38 9.3 SSE 2 7 1 4 1012.4 - 0.0
22/11:00pm 28.5 30.2 15.3 44 8.2 CALM 0 0 0 0 1012.7 - 0.0
22/10:30pm 28.3 29.8 14.6 43 8.4 CALM 0 0 0 0 1012.7 - 0.0
22/10:00pm 28.1 29.3 13.9 41 8.6 CALM 0 0 0 0 1012.3 - 0.0
22/09:30pm 28.9 29.5 14.2 40 9.0 WNW 4 7 2 4 1011.8 - 0.0
22/09:00pm 29.4 29.2 13.6 38 9.6 WNW 7 9 4 5 1011.8 1009.0 0.0
22/08:30pm 29.7 30.7 14.2 38 9.5 W 2 6 1 3 1011.4 - 0.0
22/08:00pm 31.1 31.9 14.7 37 10.2 W 4 9 2 5 1011.2 - 0.0
22/07:30pm 31.8 32.5 14.6 35 10.7 SW 4 6 2 3 1010.9 - 0.0
22/07:00pm 32.4 32.3 13.9 32 11.4 WSW 7 9 4 5 1010.7 - 0.0
22/06:30pm 32.9 32.7 13.5 30 11.9 WSW 7 9 4 5 1010.7 - 0.0
22/06:00pm 33.2 32.8 13.1 29 12.3 WSW 7 11 4 6 1010.8 1008.0 0.0
22/05:30pm 33.4 31.8 11.7 26 13.0 WSW 11 15 6 8 1010.9 - 0.0
22/05:00pm 33.4 31.8 11.5 26 13.1 WSW 11 20 6 11 1010.9 - 0.0
22/04:30pm 33.7 31.8 11.9 26 13.1 W 13 20 7 11 1011.0 - 0.0
22/04:00pm 33.5 31.8 12.6 28 12.7 WSW 13 20 7 11 1011.3 - 0.0
22/03:30pm 34.0 32.6 13.4 28 12.7 W 13 20 7 11 1011.7 - 0.0
22/03:00pm 34.4 32.8 12.8 27 13.2 WNW 13 22 7 12 1012.2 1009.3 0.0
22/02:30pm 34.9 32.5 13.8 28 13.1 NW 19 26 10 14 1012.3 - 0.0
22/02:00pm 35.0 33.3 14.6 29 12.8 NW 17 35 9 19 1012.6 - 0.0
22/01:30pm 33.5 30.3 14.2 31 12.0 N 24 32 13 17 1013.2 - 0.0
22/01:00pm 33.5 31.3 14.4 31 11.9 N 19 28 10 15 1013.8 - 0.0
22/12:30pm 32.9 30.2 14.6 33 11.4 N 22 32 12 17 1014.1 - 0.0
22/12:00pm 31.0 28.2 15.3 38 9.8 N 24 32 13 17 1015.0 1012.1 0.0
22/11:30am 30.3 27.4 15.2 40 9.4 NNE 24 33 13 18 1015.6 - 0.0
22/11:00am 30.2 27.0 15.3 40 9.3 NE 26 33 14 18 1015.7 - 0.0
22/10:30am 30.3 26.3 16.2 42 8.9 NNE 32 44 17 24 1015.8 - 0.0
22/10:00am 31.2 28.7 16.2 40 9.5 N 24 35 13 19 1015.8 - 0.0
22/09:30am 30.6 28.6 16.4 42 9.0 N 22 30 12 16 1015.5 - 0.0
22/09:00am 30.5 30.3 20.5 55 6.7 NE 22 30 12 16 1015.4 1012.5 0.0
22/08:30am 30.7 29.9 20.1 53 7.1 E 24 33 13 18 1015.3 - 0.0
22/08:00am 29.8 28.9 19.9 55 6.6 E 24 33 13 18 1015.2 - 0.0
22/07:30am 30.4 29.7 18.6 49 7.7 E 20 28 11 15 1014.4 - 0.0
22/07:00am 30.1 31.2 18.1 48 7.8 ENE 9 11 5 6 1014.3 - 0.0
22/06:30am 29.2 30.7 18.1 51 7.2 NNE 7 9 4 5 1013.7 - 0.0
22/06:00am 28.8 30.6 18.3 53 6.8 WSW 6 7 3 4 1013.1 1010.2 0.0
22/05:30am 29.5 30.6 17.9 49 7.5 W 9 13 5 7 1012.6 - 0.0
22/05:00am 29.0 29.7 18.0 51 7.1 W 11 20 6 11 1012.0 - 0.0
22/04:30am 29.4 30.0 17.8 49 7.5 E 11 13 6 7 1011.1 - 0.0
22/04:00am 29.9 30.2 17.9 48 7.8 E 13 20 7 11 1010.6 - 0.0
22/03:30am 29.8 30.1 17.9 48 7.7 E 13 20 7 11 1010.6 - 0.0
22/03:00am 30.3 30.4 18.4 49 7.8 ESE 15 22 8 12 1010.5 1007.6 0.0
22/02:30am 31.3 30.5 17.0 42 9.2 ESE 17 24 9 13 1010.4 - 0.0
22/02:00am 32.1 32.6 16.5 39 10.0 SE 9 13 5 7 1010.7 - 0.0
22/01:30am 32.3 33.2 16.5 38 10.1 S 7 11 4 6 1010.9 - 0.0
22/01:00am 30.9 31.9 17.8 45 8.5 SSW 9 11 5 6 1011.2 - 0.0
22/12:30am 32.5 33.0 16.6 38 10.2 S 9 13 5 7 1011.4 - 0.0
22/12:00am 32.4 33.7 17.1 40 9.9 SSE 6 9 3 5 1011.6 1008.8 0.0
 
Date/Time
CST
Temp
°C
App
Temp
°C
Dew
Point
Rel
Hum
%
Delta-T
°C
Wind Press
QNH
hPa
Press
MSL
hPa
Rain
since 9 am
mm
Dir
 
Spd
km/h
Gust
km/h
Spd
kts
Gust
kts
21/11:30pm 33.2 34.0 16.3 36 10.8 SE 7 9 4 5 1011.8 - 0.0
21/11:00pm 33.5 33.9 15.3 33 11.5 S 7 11 4 6 1011.9 - 0.0
21/10:30pm 33.2 32.4 15.1 33 11.4 WSW 13 22 7 12 1011.5 - 0.0
21/10:00pm 33.6 33.1 15.0 32 11.7 WSW 11 15 6 8 1011.2 - 0.0
21/09:30pm 34.1 32.0 14.6 31 12.2 SSW 19 28 10 15 1010.6 - 0.0
21/09:00pm 34.5 31.4 14.6 30 12.5 SSW 24 35 13 19 1010.7 1007.9 0.0
21/08:40pm 35.1 30.7 13.0 26 13.6 SSW 28 46 15 25 1010.4 - 0.0
21/08:39pm 35.2 30.0 12.9 26 13.7 SSW 32 46 17 25 1010.4 - 0.0
21/08:30pm 36.1 35.4 13.1 25 14.2 SW 9 11 5 6 1010.1 - 0.0
21/08:00pm 36.5 35.9 11.6 22 15.1 SSW 6 17 3 9 1009.5 - 0.0
21/07:30pm 36.5 38.4 15.8 29 13.3 CALM 0 0 0 0 1008.9 - 0.0
21/07:00pm 37.4 39.2 15.6 27 14.0 CALM 0 0 0 0 1008.3 - 0.0
21/06:30pm 38.4 39.4 14.2 23 15.3 NNE 2 4 1 2 1008.0 - 0.0
21/06:00pm 38.9 38.1 12.9 21 16.2 N 9 11 5 6 1007.7 1004.8 0.0
21/05:30pm 39.3 38.0 11.2 18 17.1 N 9 15 5 8 1007.4 - 0.0
21/05:00pm 39.4 38.0 10.9 18 17.3 N 9 15 5 8 1007.3 - 0.0
21/04:30pm 39.8 38.5 11.3 18 17.4 NNW 9 24 5 13 1007.5 - 0.0
21/04:00pm 39.4 37.8 11.4 18 17.1 NNW 11 26 6 14 1007.8 - 0.0
21/03:30pm 40.3 39.0 11.4 18 17.7 NNW 9 17 5 9 1008.1 - 0.0
21/03:00pm 40.3 38.9 9.7 16 18.3 NE 7 15 4 8 1008.4 1005.6 0.0
21/02:30pm 40.2 36.6 9.8 16 18.2 WNW 19 26 10 14 1009.0 - 0.0
21/02:00pm 40.7 36.4 9.3 15 18.7 NNW 22 30 12 16 1009.4 - 0.0
21/01:30pm 38.5 36.7 10.8 19 16.7 WSW 11 20 6 11 1010.0 - 0.0
21/01:00pm 39.3 35.7 9.8 17 17.6 NW 19 26 10 14 1010.5 - 0.0
21/12:30pm 39.8 36.6 9.9 16 17.9 WNW 17 26 9 14 1011.2 - 0.0
21/12:00pm 38.5 35.5 10.5 18 16.8 WNW 17 30 9 16 1011.7 1008.9 0.0
21/11:30am 37.0 34.4 10.8 20 15.7 NW 15 24 8 13 1012.4 - 0.0
21/11:00am 37.0 32.6 10.5 20 15.8 WNW 24 32 13 17 1012.7 - 0.0

Other Formats:

Comma delimited format used in spreadsheet applications
http://www.bom.gov.au/fwo/IDD60801/IDD60801.94238.axf

JavaScript Object Notation format (JSON) in row-major order
http://www.bom.gov.au/fwo/IDD60801/IDD60801.94238.json